Time;durP1;ratioP1;P1;durP2;ratioP2;P2;SDS_P1;SDS_P2;PMS_P1;PMS_P2;Temp;Humidity;BMP_temperature;BMP_pressure;BME280_temperature;BME280_humidity;BME280_pressure;Samples;Min_cycle;Max_cycle;Signal;HPM_P1;HPM_P2
2023/10/10 00:15:21;;;;;;;1999.90;999.90;;;;;;;;;;5117991;27;20031;-85
2023/10/10 00:17:47;;;;;;;1999.90;999.90;;;;;;;;;;5121686;27;20071;-85
2023/10/10 00:20:18;;;;;;;1999.90;999.90;;;;;;;;;;5119735;27;20073;-84
2023/10/10 00:22:47;;;;;;;1999.90;999.90;;;;;;;;;;5119145;27;20039;-85
2023/10/10 00:25:16;;;;;;;1999.90;999.90;;;;;;;;;;5117739;27;20093;-84
2023/10/10 00:27:43;;;;;;;1999.90;999.90;;;;;;;;;;5117949;27;20130;-85
2023/10/10 00:30:13;;;;;;;1999.90;999.90;;;;;;;;;;5123117;27;20070;-84
2023/10/10 00:32:42;;;;;;;1999.90;999.90;;;;;;;;;;5118665;27;20577;-84
2023/10/10 00:35:10;;;;;;;1999.90;999.90;;;;;;;;;;5120744;27;20055;-85
2023/10/10 00:37:37;;;;;;;1999.90;999.90;;;;;;;;;;5117623;27;20075;-83
2023/10/10 00:40:08;;;;;;;1999.90;999.90;;;;;;;;;;5118388;27;20413;-84
2023/10/10 00:42:40;;;;;;;1999.90;999.90;;;;;;;;;;5117958;27;20467;-85
2023/10/10 00:45:12;;;;;;;1999.90;999.90;;;;;;;;;;5116085;27;20807;-84
2023/10/10 00:47:45;;;;;;;1999.90;999.90;;;;;;;;;;5120149;27;20055;-84
2023/10/10 00:50:16;;;;;;;1999.90;999.90;;;;;;;;;;5121895;27;20047;-84
2023/10/10 00:52:44;;;;;;;1999.90;999.90;;;;;;;;;;5119365;27;20070;-85
2023/10/10 00:55:10;;;;;;;1999.90;999.90;;;;;;;;;;5120068;27;20063;-85
2023/10/10 00:57:38;;;;;;;1999.90;999.90;;;;;;;;;;5118574;27;20591;-84
2023/10/10 01:00:07;;;;;;;1999.90;999.90;;;;;;;;;;5120067;27;20134;-84
2023/10/10 01:05:23;;;;;;;1999.90;999.90;;;;;;;;;;5080043;28;20080;-80
2023/10/10 01:07:51;;;;;;;1999.90;999.90;;;;;;;;;;5078658;28;20080;-81
2023/10/10 01:10:18;;;;;;;1999.90;999.90;;;;;;;;;;5077754;28;20105;-82
2023/10/10 01:12:46;;;;;;;1999.90;999.90;;;;;;;;;;5077147;28;20088;-80
2023/10/10 01:15:16;;;;;;;1999.90;999.90;;;;;;;;;;5080833;28;20407;-80
2023/10/10 01:17:43;;;;;;;1999.90;999.90;;;;;;;;;;5078486;28;20127;-81
2023/10/10 01:20:17;;;;;;;1999.90;999.90;;;;;;;;;;5081224;28;20049;-80
2023/10/10 01:22:47;;;;;;;1999.90;999.90;;;;;;;;;;5077032;28;20492;-81
2023/10/10 01:25:41;;;;;;;1999.90;999.90;;;;;;;;;;5076903;28;20052;-82
2023/10/10 01:28:23;;;;;;;1999.90;999.90;;;;;;;;;;5078843;28;20059;-82
2023/10/10 01:30:59;;;;;;;1999.90;999.90;;;;;;;;;;5079778;28;20049;-81
2023/10/10 01:33:35;;;;;;;;;;;;;;;;;;5078070;28;20052;-81
2023/10/10 01:36:03;;;;;;;1999.90;999.90;;;;;;;;;;5082328;28;19927;-82
2023/10/10 01:38:55;;;;;;;1999.90;999.90;;;;;;;;;;5079188;28;20048;-80
2023/10/10 01:41:23;;;;;;;1999.90;999.90;;;;;;;;;;5077608;28;20044;-80
2023/10/10 01:43:53;;;;;;;1999.90;999.90;;;;;;;;;;5079929;28;20127;-81
2023/10/10 01:46:27;;;;;;;1999.90;999.90;;;;;;;;;;5082921;28;20040;-80
2023/10/10 01:48:54;;;;;;;1999.90;999.90;;;;;;;;;;5083111;28;20047;-81
2023/10/10 01:51:21;;;;;;;1999.90;999.90;;;;;;;;;;5084577;28;20052;-80
2023/10/10 01:53:52;;;;;;;1999.90;999.90;;;;;;;;;;5082128;28;20135;-80
2023/10/10 01:56:18;;;;;;;1999.90;999.90;;;;;;;;;;5085330;28;20087;-80
2023/10/10 01:58:45;;;;;;;1999.90;999.90;;;;;;;;;;5087783;28;20048;-80
2023/10/10 02:01:14;;;;;;;1999.90;999.90;;;;;;;;;;5081850;28;20048;-81
2023/10/10 02:03:42;;;;;;;1999.90;999.90;;;;;;;;;;5084221;28;20083;-80
2023/10/10 02:06:14;;;;;;;1999.90;999.90;;;;;;;;;;5086012;28;20462;-79
2023/10/10 02:08:41;;;;;;;1999.90;999.90;;;;;;;;;;5077419;28;20072;-81
2023/10/10 02:11:12;;;;;;;1999.90;999.90;;;;;;;;;;5091401;28;20052;-83
2023/10/10 02:13:39;;;;;;;1999.90;999.90;;;;;;;;;;5086542;28;20060;-81
2023/10/10 02:16:06;;;;;;;1999.90;999.90;;;;;;;;;;5083327;28;20054;-81
2023/10/10 02:18:39;;;;;;;1999.90;999.90;;;;;;;;;;5084401;28;20036;-82
2023/10/10 02:21:09;;;;;;;1999.90;999.90;;;;;;;;;;5084373;28;20044;-80
2023/10/10 02:23:35;;;;;;;1999.90;999.90;;;;;;;;;;5081260;28;20072;-80
2023/10/10 02:26:07;;;;;;;1999.90;999.90;;;;;;;;;;5082453;28;20085;-82
2023/10/10 02:28:47;;;;;;;1999.90;999.90;;;;;;;;;;5077899;28;20687;-81
2023/10/10 02:31:16;;;;;;;1999.90;999.90;;;;;;;;;;5082408;28;20059;-82
2023/10/10 02:33:48;;;;;;;1999.90;999.90;;;;;;;;;;5086267;28;20109;-80
2023/10/10 02:36:29;;;;;;;1999.90;999.90;;;;;;;;;;5080416;28;20056;-82
2023/10/10 02:38:59;;;;;;;1999.90;999.90;;;;;;;;;;5083127;28;20080;-82
2023/10/10 02:41:38;;;;;;;1999.90;999.90;;;;;;;;;;5083308;28;20040;-80
2023/10/10 02:44:09;;;;;;;1999.90;999.90;;;;;;;;;;5079554;28;20173;-81
2023/10/10 02:46:38;;;;;;;1999.90;999.90;;;;;;;;;;5083822;28;20727;-81
2023/10/10 02:49:12;;;;;;;1999.90;999.90;;;;;;;;;;5083512;28;20055;-81
2023/10/10 02:51:41;;;;;;;1999.90;999.90;;;;;;;;;;5081498;28;20060;-81
2023/10/10 02:54:21;;;;;;;1999.90;999.90;;;;;;;;;;5082537;28;20170;-81
2023/10/10 02:56:48;;;;;;;1999.90;999.90;;;;;;;;;;5082016;28;20044;-80
2023/10/10 02:59:21;;;;;;;1999.90;999.90;;;;;;;;;;5082804;28;20067;-84
2023/10/10 03:01:57;;;;;;;1999.90;999.90;;;;;;;;;;5082450;28;20048;-80
2023/10/10 03:04:52;;;;;;;1999.90;999.90;;;;;;;;;;5078299;28;20060;-81
2023/10/10 03:07:19;;;;;;;1999.90;999.90;;;;;;;;;;5085072;28;21006;-81
2023/10/10 03:10:14;;;;;;;1999.90;999.90;;;;;;;;;;5080032;28;20496;-80
2023/10/10 03:12:38;;;;;;;1999.90;999.90;;;;;;;;;;5080434;28;20109;-81
2023/10/10 03:15:14;;;;;;;1999.90;999.90;;;;;;;;;;5082898;28;20045;-80
2023/10/10 03:17:48;;;;;;;1999.90;999.90;;;;;;;;;;5080540;28;20497;-79
2023/10/10 03:20:25;;;;;;;1999.90;999.90;;;;;;;;;;5081961;28;20529;-80
2023/10/10 03:23:18;;;;;;;1999.90;999.90;;;;;;;;;;5083117;28;20051;-80
2023/10/10 03:25:47;;;;;;;1999.90;999.90;;;;;;;;;;5081416;28;20480;-81
2023/10/10 03:28:30;;;;;;;1999.90;999.90;;;;;;;;;;5076870;28;20049;-80
2023/10/10 03:31:04;;;;;;;1999.90;999.90;;;;;;;;;;5079032;28;20048;-80
2023/10/10 03:33:37;;;;;;;1999.90;999.90;;;;;;;;;;5081967;28;20056;-80
2023/10/10 03:36:14;;;;;;;1999.90;999.90;;;;;;;;;;5081873;28;20070;-84
2023/10/10 05:25:56;;;;;;;1999.90;999.90;;;;;;;;;;5077706;28;20114;-81
2023/10/10 05:28:29;;;;;;;1999.90;999.90;;;;;;;;;;5076920;28;20054;-80
2023/10/10 05:30:57;;;;;;;1999.90;999.90;;;;;;;;;;5083820;28;20628;-81
2023/10/10 05:33:26;;;;;;;1999.90;999.90;;;;;;;;;;5076315;28;20047;-82
2023/10/10 05:35:58;;;;;;;1999.90;999.90;;;;;;;;;;5079747;28;20047;-80
2023/10/10 05:38:25;;;;;;;1999.90;999.90;;;;;;;;;;5078224;28;20047;-80
2023/10/10 05:40:51;;;;;;;1999.90;999.90;;;;;;;;;;5080306;28;20045;-80
2023/10/10 05:43:26;;;;;;;1999.90;999.90;;;;;;;;;;5081043;28;20127;-81
2023/10/10 05:45:53;;;;;;;1999.90;999.90;;;;;;;;;;5079172;28;20045;-81
2023/10/10 05:48:20;;;;;;;1999.90;999.90;;;;;;;;;;5076929;28;20099;-81
2023/10/10 05:50:48;;;;;;;1999.90;999.90;;;;;;;;;;5074787;28;20043;-80
2023/10/10 05:53:16;;;;;;;1999.90;999.90;;;;;;;;;;5078472;28;20044;-80
2023/10/10 05:55:43;;;;;;;1999.90;999.90;;;;;;;;;;5083489;28;20044;-81
2023/10/10 05:58:12;;;;;;;1999.90;999.90;;;;;;;;;;5077897;28;20091;-79
2023/10/10 06:00:44;;;;;;;1999.90;999.90;;;;;;;;;;5079648;28;20054;-81
2023/10/10 06:03:12;;;;;;;1999.90;999.90;;;;;;;;;;5080164;28;20080;-79
2023/10/10 06:05:42;;;;;;;1999.90;999.90;;;;;;;;;;5083121;28;20056;-79
2023/10/10 06:08:08;;;;;;;1999.90;999.90;;;;;;;;;;5077173;28;20048;-81
2023/10/10 06:10:37;;;;;;;1999.90;999.90;;;;;;;;;;5086826;28;20121;-84
2023/10/10 06:13:11;;;;;;;1999.90;999.90;;;;;;;;;;5084266;28;20051;-81
2023/10/10 06:15:37;;;;;;;1999.90;999.90;;;;;;;;;;5091537;28;20049;-81
2023/10/10 06:18:15;;;;;;;1999.90;999.90;;;;;;;;;;5091412;28;20051;-83
2023/10/10 06:20:44;;;;;;;1999.90;999.90;;;;;;;;;;5089240;28;20098;-79
2023/10/10 06:23:14;;;;;;;1999.90;999.90;;;;;;;;;;5087644;28;20077;-82
2023/10/10 06:25:41;;;;;;;1999.90;999.90;;;;;;;;;;5084698;28;20070;-80
2023/10/10 06:28:22;;;;;;;1999.90;999.90;;;;;;;;;;5080489;28;20048;-79
2023/10/10 06:30:52;;;;;;;1999.90;999.90;;;;;;;;;;5084066;28;20059;-82
2023/10/10 06:33:27;;;;;;;1999.90;999.90;;;;;;;;;;5093010;28;20559;-83
2023/10/10 06:36:01;;;;;;;1999.90;999.90;;;;;;;;;;5086100;28;20119;-83
2023/10/10 06:38:28;;;;;;;1999.90;999.90;;;;;;;;;;5083206;28;20128;-79
2023/10/10 06:40:53;;;;;;;1999.90;999.90;;;;;;;;;;5089975;28;20385;-80
2023/10/10 06:43:26;;;;;;;1999.90;999.90;;;;;;;;;;5080319;28;20052;-80
2023/10/10 06:45:55;;;;;;;1999.90;999.90;;;;;;;;;;5093042;28;20050;-79
2023/10/10 06:48:32;;;;;;;1999.90;999.90;;;;;;;;;;5089257;28;20048;-82
2023/10/10 06:51:00;;;;;;;1999.90;999.90;;;;;;;;;;5100046;28;20134;-80
2023/10/10 06:53:35;;;;;;;1999.90;999.90;;;;;;;;;;5091115;28;20044;-79
2023/10/10 06:56:14;;;;;;;1999.90;999.90;;;;;;;;;;5076930;28;20110;-81
2023/10/10 06:58:43;;;;;;;1999.90;999.90;;;;;;;;;;5095329;28;20051;-80
2023/10/10 07:01:11;;;;;;;1999.90;999.90;;;;;;;;;;5093298;28;20455;-85
2023/10/10 07:03:42;;;;;;;1999.90;999.90;;;;;;;;;;5095537;28;20048;-79
2023/10/10 07:06:09;;;;;;;1999.90;999.90;;;;;;;;;;5091350;28;20133;-79
2023/10/10 07:08:35;;;;;;;1999.90;999.90;;;;;;;;;;5089942;28;20527;-79
2023/10/10 07:11:02;;;;;;;1999.90;999.90;;;;;;;;;;5082612;28;20047;-79
2023/10/10 07:13:30;;;;;;;1999.90;999.90;;;;;;;;;;5082410;28;20051;-80
2023/10/10 07:15:56;;;;;;;1999.90;999.90;;;;;;;;;;5078220;28;20041;-79
2023/10/10 07:18:23;;;;;;;1999.90;999.90;;;;;;;;;;5078297;28;20051;-79
2023/10/10 07:21:04;;;;;;;1999.90;999.90;;;;;;;;;;5088504;28;20040;-79
2023/10/10 07:23:37;;;;;;;1999.90;999.90;;;;;;;;;;5081391;28;20385;-80
2023/10/10 07:26:05;;;;;;;1999.90;999.90;;;;;;;;;;5094036;28;20052;-79
2023/10/10 07:28:36;;;;;;;1999.90;999.90;;;;;;;;;;5084309;28;20079;-83
2023/10/10 07:31:07;;;;;;;1999.90;999.90;;;;;;;;;;5082327;28;20471;-81
2023/10/10 07:33:40;;;;;;;1999.90;999.90;;;;;;;;;;5086681;28;20076;-80
2023/10/10 07:36:12;;;;;;;1999.90;999.90;;;;;;;;;;5087859;28;20048;-80
2023/10/10 07:38:39;;;;;;;1999.90;999.90;;;;;;;;;;5081892;28;20481;-80
2023/10/10 07:41:06;;;;;;;1999.90;999.90;;;;;;;;;;5085549;28;20036;-82
2023/10/10 07:43:34;;;;;;;1999.90;999.90;;;;;;;;;;5086056;28;20052;-80
2023/10/10 07:46:12;;;;;;;1999.90;999.90;;;;;;;;;;5077629;28;20059;-81
2023/10/10 07:48:39;;;;;;;1999.90;999.90;;;;;;;;;;5082003;28;20048;-81
2023/10/10 07:51:08;;;;;;;1999.90;999.90;;;;;;;;;;5088086;28;20404;-81
2023/10/10 07:53:58;;;;;;;1999.90;999.90;;;;;;;;;;5086770;28;20039;-80
2023/10/10 07:56:24;;;;;;;1999.90;999.90;;;;;;;;;;5083904;28;20045;-82
2023/10/10 07:58:56;;;;;;;1999.90;999.90;;;;;;;;;;5079209;28;20626;-81
2023/10/10 08:01:23;;;;;;;1999.90;999.90;;;;;;;;;;5077793;28;20055;-81
2023/10/10 08:03:50;;;;;;;1999.90;999.90;;;;;;;;;;5086743;28;20061;-81
2023/10/10 08:06:21;;;;;;;1999.90;999.90;;;;;;;;;;5088114;28;20056;-81
2023/10/10 08:08:56;;;;;;;1999.90;999.90;;;;;;;;;;5079703;28;20496;-86
2023/10/10 08:11:35;;;;;;;1999.90;999.90;;;;;;;;;;5082168;28;20044;-81
2023/10/10 08:14:06;;;;;;;1999.90;999.90;;;;;;;;;;5075309;28;20047;-81
2023/10/10 08:16:33;;;;;;;1999.90;999.90;;;;;;;;;;5101695;28;20071;-81
2023/10/10 08:19:04;;;;;;;1999.90;999.90;;;;;;;;;;5085813;28;20059;-81
2023/10/10 08:21:36;;;;;;;1999.90;999.90;;;;;;;;;;5088837;28;20086;-81
2023/10/10 08:24:04;;;;;;;1999.90;999.90;;;;;;;;;;5098306;28;20450;-81
2023/10/10 08:26:38;;;;;;;1999.90;999.90;;;;;;;;;;5086565;28;20054;-81
2023/10/10 08:29:06;;;;;;;1999.90;999.90;;;;;;;;;;5092930;28;20047;-83
2023/10/10 08:31:33;;;;;;;1999.90;999.90;;;;;;;;;;5091957;28;20043;-82
2023/10/10 08:34:00;;;;;;;1999.90;999.90;;;;;;;;;;5082979;28;20045;-81
2023/10/10 08:36:26;;;;;;;1999.90;999.90;;;;;;;;;;5087819;28;20507;-81
2023/10/10 08:38:53;;;;;;;1999.90;999.90;;;;;;;;;;5076815;28;20139;-81
2023/10/10 08:41:27;;;;;;;1999.90;999.90;;;;;;;;;;5084544;28;20052;-82
2023/10/10 08:44:14;;;;;;;1999.90;999.90;;;;;;;;;;5080429;28;20382;-81
2023/10/10 08:46:46;;;;;;;1999.90;999.90;;;;;;;;;;5083803;28;20040;-82
2023/10/10 08:49:13;;;;;;;1999.90;999.90;;;;;;;;;;5085843;28;20083;-81
2023/10/10 08:51:40;;;;;;;1999.90;999.90;;;;;;;;;;5094845;28;20047;-81
2023/10/10 08:54:09;;;;;;;1999.90;999.90;;;;;;;;;;5075033;28;20412;-85
2023/10/10 08:56:38;;;;;;;1999.90;999.90;;;;;;;;;;5075093;28;20056;-82
2023/10/10 08:59:07;;;;;;;1999.90;999.90;;;;;;;;;;5081431;28;20477;-82
2023/10/10 09:01:35;;;;;;;1999.90;999.90;;;;;;;;;;5099235;28;20048;-81
2023/10/10 09:04:04;;;;;;;1999.90;999.90;;;;;;;;;;5085089;28;20075;-81
2023/10/10 09:06:34;;;;;;;1999.90;999.90;;;;;;;;;;5077325;28;20051;-82
2023/10/10 09:09:32;;;;;;;1999.90;999.90;;;;;;;;;;5082540;28;20048;-82
2023/10/10 09:11:49;;;;;;;1999.90;999.90;;;;;;;;;;5081596;28;20540;-83
2023/10/10 09:14:19;;;;;;;1999.90;999.90;;;;;;;;;;5074580;28;20659;-81
2023/10/10 09:16:45;;;;;;;1999.90;999.90;;;;;;;;;;5081947;28;20047;-81
2023/10/10 09:19:14;;;;;;;1999.90;999.90;;;;;;;;;;5085605;28;20105;-83
2023/10/10 09:21:50;;;;;;;1999.90;999.90;;;;;;;;;;5082096;28;20130;-81
2023/10/10 09:24:28;;;;;;;1999.90;999.90;;;;;;;;;;5081697;28;20052;-81
2023/10/10 09:26:58;;;;;;;1999.90;999.90;;;;;;;;;;5092769;28;20668;-80
2023/10/10 09:29:34;;;;;;;1999.90;999.90;;;;;;;;;;5084635;28;20547;-84
2023/10/10 09:32:01;;;;;;;1999.90;999.90;;;;;;;;;;5086759;28;20078;-81
2023/10/10 09:34:35;;;;;;;1999.90;999.90;;;;;;;;;;5076631;28;20127;-80
2023/10/10 09:37:07;;;;;;;1999.90;999.90;;;;;;;;;;5090588;28;20108;-81
2023/10/10 09:39:36;;;;;;;1999.90;999.90;;;;;;;;;;5083609;28;20554;-81
2023/10/10 09:42:28;;;;;;;1999.90;999.90;;;;;;;;;;5079962;28;20040;-85
2023/10/10 09:47:43;;;;;;;1999.90;999.90;;;;;;;;;;5077183;28;20404;-80
2023/10/10 09:50:30;;;;;;;1999.90;999.90;;;;;;;;;;5078396;28;20514;-81
2023/10/10 09:52:58;;;;;;;1999.90;999.90;;;;;;;;;;5074989;28;20404;-80
2023/10/10 09:55:39;;;;;;;1999.90;999.90;;;;;;;;;;5086386;28;20048;-81
2023/10/10 09:58:24;;;;;;;1999.90;999.90;;;;;;;;;;5071147;28;20045;-82
2023/10/10 10:00:52;;;;;;;1999.90;999.90;;;;;;;;;;5086379;28;20036;-82
2023/10/10 10:06:34;;;;;;;1999.90;999.90;;;;;;;;;;5081034;28;20055;-81
2023/10/10 10:09:32;;;;;;;1999.90;999.90;;;;;;;;;;5084223;28;20044;-81
2023/10/10 10:12:30;;;;;;;1999.90;999.90;;;;;;;;;;5092151;28;20039;-81
2023/10/10 10:15:06;;;;;;;1999.90;999.90;;;;;;;;;;5081341;28;20048;-82
2023/10/10 10:17:47;;;;;;;1999.90;999.90;;;;;;;;;;5085143;28;20048;-81
2023/10/10 10:20:21;;;;;;;1999.90;999.90;;;;;;;;;;5093377;28;20051;-82
2023/10/10 10:22:53;;;;;;;1999.90;999.90;;;;;;;;;;5091278;28;20041;-80
2023/10/10 10:25:25;;;;;;;1999.90;999.90;;;;;;;;;;5086911;28;20451;-80
2023/10/10 10:28:00;;;;;;;1999.90;999.90;;;;;;;;;;5085785;28;20045;-81
2023/10/10 10:30:47;;;;;;;1999.90;999.90;;;;;;;;;;5093277;28;20043;-80
2023/10/10 10:33:15;;;;;;;1999.90;999.90;;;;;;;;;;5090747;28;20044;-80
2023/10/10 10:36:06;;;;;;;1999.90;999.90;;;;;;;;;;5084581;28;20052;-82
2023/10/10 10:38:33;;;;;;;1999.90;999.90;;;;;;;;;;5088065;28;20098;-81
2023/10/10 10:41:07;;;;;;;1999.90;999.90;;;;;;;;;;5085127;28;20045;-81
2023/10/10 10:43:49;;;;;;;1999.90;999.90;;;;;;;;;;5079609;28;20066;-80
2023/10/10 10:46:27;;;;;;;1999.90;999.90;;;;;;;;;;5085949;28;20098;-81
2023/10/10 10:49:05;;;;;;;1999.90;999.90;;;;;;;;;;5083516;28;20076;-81
2023/10/10 10:51:41;;;;;;;1999.90;999.90;;;;;;;;;;5084955;28;20125;-82
2023/10/10 10:54:09;;;;;;;1999.90;999.90;;;;;;;;;;5095220;28;20122;-81
2023/10/10 10:56:41;;;;;;;1999.90;999.90;;;;;;;;;;5085838;28;20439;-80
2023/10/10 10:59:19;;;;;;;1999.90;999.90;;;;;;;;;;5080733;28;20040;-81
2023/10/10 11:01:51;;;;;;;1999.90;999.90;;;;;;;;;;5086588;28;20053;-81
2023/10/10 11:07:15;;;;;;;1999.90;999.90;;;;;;;;;;5078117;28;20489;-81
2023/10/10 11:09:52;;;;;;;1999.90;999.90;;;;;;;;;;5083902;28;20048;-81
2023/10/10 11:12:21;;;;;;;1999.90;999.90;;;;;;;;;;5083844;28;20725;-80
2023/10/10 11:14:49;;;;;;;1999.90;999.90;;;;;;;;;;5087469;28;20589;-80
2023/10/10 11:17:18;;;;;;;1999.90;999.90;;;;;;;;;;5084428;28;20044;-81
2023/10/10 11:19:46;;;;;;;1999.90;999.90;;;;;;;;;;5086333;28;20464;-80
2023/10/10 11:22:17;;;;;;;1999.90;999.90;;;;;;;;;;5074336;28;20048;-81
2023/10/10 11:24:47;;;;;;;1999.90;999.90;;;;;;;;;;5083411;28;20044;-80
2023/10/10 11:27:21;;;;;;;1999.90;999.90;;;;;;;;;;5079727;28;20098;-82
2023/10/10 11:29:50;;;;;;;1999.90;999.90;;;;;;;;;;5084750;28;20044;-80
2023/10/10 11:32:24;;;;;;;1999.90;999.90;;;;;;;;;;5086374;28;20047;-81
2023/10/10 11:34:52;;;;;;;1999.90;999.90;;;;;;;;;;5092634;28;20541;-82
2023/10/10 11:37:23;;;;;;;1999.90;999.90;;;;;;;;;;5085798;28;20043;-81
2023/10/10 11:39:57;;;;;;;1999.90;999.90;;;;;;;;;;5076258;28;20055;-83
2023/10/10 11:42:33;;;;;;;1999.90;999.90;;;;;;;;;;5084936;28;20052;-83
2023/10/10 11:45:04;;;;;;;1999.90;999.90;;;;;;;;;;5083237;28;20047;-81
2023/10/10 11:47:42;;;;;;;1999.90;999.90;;;;;;;;;;5092343;28;20093;-82
2023/10/10 11:50:11;;;;;;;1999.90;999.90;;;;;;;;;;5079184;28;20051;-80
2023/10/10 11:52:51;;;;;;;1999.90;999.90;;;;;;;;;;5084913;28;20048;-80
2023/10/10 11:55:20;;;;;;;1999.90;999.90;;;;;;;;;;5085951;28;20131;-80
2023/10/10 11:57:48;;;;;;;1999.90;999.90;;;;;;;;;;5084651;28;20044;-81
2023/10/10 12:00:21;;;;;;;1999.90;999.90;;;;;;;;;;5078993;28;20447;-80
2023/10/10 12:02:50;;;;;;;1999.90;999.90;;;;;;;;;;5082813;28;20063;-80
2023/10/10 12:05:36;;;;;;;1999.90;999.90;;;;;;;;;;5066608;28;20075;-81
2023/10/10 12:08:05;;;;;;;1999.90;999.90;;;;;;;;;;5065362;28;20044;-79
2023/10/10 12:10:42;;;;;;;1999.90;999.90;;;;;;;;;;5061638;28;20060;-80
2023/10/10 12:13:09;;;;;;;1999.90;999.90;;;;;;;;;;5060245;28;20562;-80
2023/10/10 12:15:38;;;;;;;1999.90;999.90;;;;;;;;;;5063748;28;20059;-81
2023/10/10 12:18:10;;;;;;;1999.90;999.90;;;;;;;;;;5070065;28;20152;-83
2023/10/10 12:20:42;;;;;;;1999.90;999.90;;;;;;;;;;5057127;28;20041;-80
2023/10/10 12:23:08;;;;;;;1999.90;999.90;;;;;;;;;;5079117;28;20072;-79
2023/10/10 12:25:37;;;;;;;1999.90;999.90;;;;;;;;;;5063779;28;20400;-79
2023/10/10 12:28:03;;;;;;;1999.90;999.90;;;;;;;;;;5061794;28;20472;-79
2023/10/10 12:30:30;;;;;;;1999.90;999.90;;;;;;;;;;5067199;28;20060;-79
2023/10/10 12:32:56;;;;;;;1999.90;999.90;;;;;;;;;;5052989;28;20438;-79
2023/10/10 12:35:26;;;;;;;1999.90;999.90;;;;;;;;;;5060795;28;20048;-78
2023/10/10 12:38:01;;;;;;;1999.90;999.90;;;;;;;;;;5069970;28;20068;-80
2023/10/10 12:40:27;;;;;;;1999.90;999.90;;;;;;;;;;5066161;28;20056;-79
2023/10/10 12:42:54;;;;;;;1999.90;999.90;;;;;;;;;;5065757;28;20045;-82
2023/10/10 12:45:21;;;;;;;1999.90;999.90;;;;;;;;;;5061618;28;20051;-79
2023/10/10 12:47:48;;;;;;;1999.90;999.90;;;;;;;;;;5063159;28;20048;-79
2023/10/10 12:50:15;;;;;;;1999.90;999.90;;;;;;;;;;5064496;28;20496;-81
2023/10/10 12:52:46;;;;;;;1999.90;999.90;;;;;;;;;;5068573;28;20051;-82
2023/10/10 12:55:12;;;;;;;1999.90;999.90;;;;;;;;;;5067819;28;20052;-80
2023/10/10 12:57:39;;;;;;;1999.90;999.90;;;;;;;;;;5063471;28;20410;-83
2023/10/10 13:00:25;;;;;;;1999.90;999.90;;;;;;;;;;5064157;28;20049;-80
2023/10/10 13:02:53;;;;;;;1999.90;999.90;;;;;;;;;;5071367;28;20130;-79
2023/10/10 13:05:26;;;;;;;1999.90;999.90;;;;;;;;;;5086608;28;20036;-81
2023/10/10 13:07:55;;;;;;;1999.90;999.90;;;;;;;;;;5080052;28;20718;-79
2023/10/10 13:10:26;;;;;;;1999.90;999.90;;;;;;;;;;5081166;28;20072;-80
2023/10/10 13:12:53;;;;;;;1999.90;999.90;;;;;;;;;;5083130;28;20043;-80
2023/10/10 13:15:27;;;;;;;1999.90;999.90;;;;;;;;;;5083808;28;20052;-80
2023/10/10 13:18:11;;;;;;;1999.90;999.90;;;;;;;;;;5081768;28;20109;-85
2023/10/10 13:20:39;;;;;;;1999.90;999.90;;;;;;;;;;5081152;28;20662;-81
2023/10/10 13:23:07;;;;;;;1999.90;999.90;;;;;;;;;;5083266;28;20048;-80
2023/10/10 13:25:37;;;;;;;1999.90;999.90;;;;;;;;;;5086793;28;20472;-80
2023/10/10 13:28:09;;;;;;;1999.90;999.90;;;;;;;;;;5080242;28;20048;-80
2023/10/10 13:30:35;;;;;;;1999.90;999.90;;;;;;;;;;5085030;28;20047;-81
2023/10/10 13:33:02;;;;;;;1999.90;999.90;;;;;;;;;;5086969;28;20106;-80
2023/10/10 13:35:28;;;;;;;1999.90;999.90;;;;;;;;;;5075913;28;20059;-81
2023/10/10 13:37:55;;;;;;;1999.90;999.90;;;;;;;;;;5091811;28;20040;-82
2023/10/10 13:40:23;;;;;;;1999.90;999.90;;;;;;;;;;5087906;28;20068;-81
2023/10/10 13:42:52;;;;;;;1999.90;999.90;;;;;;;;;;5082920;28;20050;-80
2023/10/10 13:45:21;;;;;;;1999.90;999.90;;;;;;;;;;5080378;28;20045;-80
2023/10/10 13:47:48;;;;;;;1999.90;999.90;;;;;;;;;;5087572;28;20059;-79
2023/10/10 13:50:31;;;;;;;1999.90;999.90;;;;;;;;;;5079861;28;20520;-80
2023/10/10 13:52:58;;;;;;;1999.90;999.90;;;;;;;;;;5086301;28;20040;-80
2023/10/10 13:55:29;;;;;;;1999.90;999.90;;;;;;;;;;5082225;28;20056;-80
2023/10/10 13:57:56;;;;;;;1999.90;999.90;;;;;;;;;;5085879;28;20106;-80
2023/10/10 14:00:29;;;;;;;1999.90;999.90;;;;;;;;;;5088158;28;20045;-81
2023/10/10 14:03:00;;;;;;;1999.90;999.90;;;;;;;;;;5085496;28;20047;-83
2023/10/10 14:05:31;;;;;;;1999.90;999.90;;;;;;;;;;5084183;28;20127;-84
2023/10/10 14:07:57;;;;;;;1999.90;999.90;;;;;;;;;;5087127;28;20048;-81
2023/10/10 14:10:23;;;;;;;1999.90;999.90;;;;;;;;;;5077649;28;20054;-80
2023/10/10 14:12:51;;;;;;;1999.90;999.90;;;;;;;;;;5089518;28;20479;-80
2023/10/10 14:15:19;;;;;;;1999.90;999.90;;;;;;;;;;5087422;28;20048;-82
2023/10/10 14:17:47;;;;;;;1999.90;999.90;;;;;;;;;;5096028;28;20047;-82
2023/10/10 14:20:21;;;;;;;1999.90;999.90;;;;;;;;;;5085024;28;20048;-81
2023/10/10 14:22:49;;;;;;;1999.90;999.90;;;;;;;;;;5087595;28;20048;-81
2023/10/10 14:25:16;;;;;;;1999.90;999.90;;;;;;;;;;5080658;28;20436;-82
2023/10/10 14:27:43;;;;;;;1999.90;999.90;;;;;;;;;;5096206;28;20054;-81
2023/10/10 14:30:20;;;;;;;1999.90;999.90;;;;;;;;;;5088997;28;20048;-81
2023/10/10 14:32:53;;;;;;;1999.90;999.90;;;;;;;;;;5091883;28;20071;-79
2023/10/10 14:35:22;;;;;;;1999.90;999.90;;;;;;;;;;5083282;28;20044;-80
2023/10/10 14:37:50;;;;;;;1999.90;999.90;;;;;;;;;;5086436;28;20127;-79
2023/10/10 14:40:17;;;;;;;1999.90;999.90;;;;;;;;;;5078548;28;20132;-80
2023/10/10 14:42:43;;;;;;;1999.90;999.90;;;;;;;;;;5081597;28;20048;-80
2023/10/10 14:45:12;;;;;;;1999.90;999.90;;;;;;;;;;5081586;28;20045;-80
2023/10/10 14:47:42;;;;;;;1999.90;999.90;;;;;;;;;;5080221;28;20047;-80
2023/10/10 14:50:12;;;;;;;1999.90;999.90;;;;;;;;;;5088295;28;20778;-81
2023/10/10 14:52:47;;;;;;;1999.90;999.90;;;;;;;;;;5084109;28;20051;-81
2023/10/10 14:55:23;;;;;;;1999.90;999.90;;;;;;;;;;5092669;28;20097;-80
2023/10/10 14:57:54;;;;;;;1999.90;999.90;;;;;;;;;;5092923;28;20036;-80
2023/10/10 15:00:23;;;;;;;1999.90;999.90;;;;;;;;;;5082272;28;20044;-80
2023/10/10 15:02:53;;;;;;;1999.90;999.90;;;;;;;;;;5074374;28;20112;-81
2023/10/10 15:05:20;;;;;;;1999.90;999.90;;;;;;;;;;5078291;28;20157;-83
2023/10/10 15:07:47;;;;;;;1999.90;999.90;;;;;;;;;;5083364;28;20440;-80
2023/10/10 15:10:14;;;;;;;1999.90;999.90;;;;;;;;;;5094263;28;20044;-82
2023/10/10 15:12:40;;;;;;;1999.90;999.90;;;;;;;;;;5086699;28;20825;-80
2023/10/10 15:15:08;;;;;;;1999.90;999.90;;;;;;;;;;5081481;28;20052;-80
2023/10/10 15:17:37;;;;;;;1999.90;999.90;;;;;;;;;;5081552;28;20393;-81
2023/10/10 15:20:11;;;;;;;1999.90;999.90;;;;;;;;;;5082485;28;20083;-82
2023/10/10 15:22:41;;;;;;;1999.90;999.90;;;;;;;;;;5087158;28;20048;-80
2023/10/10 15:25:10;;;;;;;1999.90;999.90;;;;;;;;;;5086822;28;20068;-80
2023/10/10 15:27:40;;;;;;;1999.90;999.90;;;;;;;;;;5081610;28;20052;-80
2023/10/10 15:30:09;;;;;;;1999.90;999.90;;;;;;;;;;5087498;28;20164;-81
2023/10/10 15:32:44;;;;;;;1999.90;999.90;;;;;;;;;;5082279;28;20044;-81
2023/10/10 15:35:11;;;;;;;1999.90;999.90;;;;;;;;;;5089859;28;20072;-80
2023/10/10 15:37:42;;;;;;;1999.90;999.90;;;;;;;;;;5089070;28;20481;-81
2023/10/10 15:40:13;;;;;;;1999.90;999.90;;;;;;;;;;5083520;28;20491;-80
2023/10/10 15:42:40;;;;;;;1999.90;999.90;;;;;;;;;;5083418;28;20051;-81
2023/10/10 15:45:07;;;;;;;1999.90;999.90;;;;;;;;;;5081758;28;20059;-80
2023/10/10 15:47:34;;;;;;;1999.90;999.90;;;;;;;;;;5087949;28;20448;-79
2023/10/10 15:50:02;;;;;;;1999.90;999.90;;;;;;;;;;5078661;28;20055;-81
2023/10/10 15:52:33;;;;;;;1999.90;999.90;;;;;;;;;;5085742;28;20518;-80
2023/10/10 15:55:05;;;;;;;1999.90;999.90;;;;;;;;;;5082567;28;20045;-80
2023/10/10 15:57:31;;;;;;;1999.90;999.90;;;;;;;;;;5085923;28;20049;-80
2023/10/10 15:59:58;;;;;;;1999.90;999.90;;;;;;;;;;5082148;28;20072;-80
2023/10/10 16:02:24;;;;;;;1999.90;999.90;;;;;;;;;;5081894;28;20049;-80
2023/10/10 16:04:51;;;;;;;1999.90;999.90;;;;;;;;;;5088632;28;20492;-80
2023/10/10 16:07:19;;;;;;;1999.90;999.90;;;;;;;;;;5083818;28;20076;-80
2023/10/10 16:09:46;;;;;;;1999.90;999.90;;;;;;;;;;5090522;28;20044;-81
2023/10/10 16:12:13;;;;;;;1999.90;999.90;;;;;;;;;;5086885;28;20416;-80
2023/10/10 16:14:39;;;;;;;1999.90;999.90;;;;;;;;;;5086944;28;20075;-81
2023/10/10 16:17:06;;;;;;;1999.90;999.90;;;;;;;;;;5086472;28;20066;-80